Time;durP1;ratioP1;P1;durP2;ratioP2;P2;SDS_P1;SDS_P2;PMS_P1;PMS_P2;Temp;Humidity;BMP_temperature;BMP_pressure;BME280_temperature;BME280_humidity;BME280_pressure;Samples;Min_cycle;Max_cycle;Signal;HPM_P1;HPM_P2
2021/08/16 00:01:15;;;;;;;7.00;1.55;;;;;;;18.41;69.35;100513.28;5029481;28;20034;-72
2021/08/16 00:04:01;;;;;;;6.32;1.15;;;;;;;18.40;69.82;100508.84;5026077;28;20068;-72
2021/08/16 00:06:46;;;;;;;4.97;1.52;;;;;;;18.39;70.05;100509.22;5024644;28;20041;-72
2021/08/16 00:09:32;;;;;;;9.55;1.42;;;;;;;18.36;70.21;100499.47;5033715;28;20055;-72
2021/08/16 00:12:18;;;;;;;5.78;1.40;;;;;;;18.35;70.62;100499.81;5030404;28;20030;-72
2021/08/16 00:15:04;;;;;;;8.75;1.70;;;;;;;18.32;70.79;100481.66;5035865;28;20036;-72
2021/08/16 00:17:50;;;;;;;7.88;1.60;;;;;;;18.27;71.02;100470.63;5035183;28;20038;-72
2021/08/16 00:20:36;;;;;;;5.88;1.52;;;;;;;18.27;70.41;100484.66;5031662;28;20113;-72
2021/08/16 00:23:21;;;;;;;8.80;1.70;;;;;;;18.21;70.53;100484.06;5034504;28;20037;-72
2021/08/16 00:26:07;;;;;;;5.03;1.48;;;;;;;18.18;71.68;100490.38;5023298;28;20033;-72
2021/08/16 00:28:53;;;;;;;6.22;1.55;;;;;;;18.14;71.63;100483.00;5037350;28;20041;-72
2021/08/16 00:31:39;;;;;;;7.63;1.50;;;;;;;18.10;71.81;100488.47;5028873;28;20077;-72
2021/08/16 00:34:24;;;;;;;6.72;2.05;;;;;;;18.07;72.34;100490.00;5027538;28;20108;-72
2021/08/16 00:37:10;;;;;;;7.22;1.58;;;;;;;18.08;70.68;100491.66;5026508;28;20038;-72
2021/08/16 00:39:56;;;;;;;6.15;1.75;;;;;;;18.05;71.49;100485.88;5024892;28;20148;-72
2021/08/16 00:42:42;;;;;;;7.72;1.83;;;;;;;17.99;72.86;100488.09;5033791;28;20055;-72
2021/08/16 00:45:29;;;;;;;4.53;1.20;;;;;;;17.98;72.31;100478.03;5024411;28;20037;-72
2021/08/16 00:48:15;;;;;;;8.32;1.83;;;;;;;17.97;72.47;100473.56;5022281;28;20104;-72
2021/08/16 00:51:00;;;;;;;6.75;1.67;;;;;;;17.94;71.58;100479.03;5033364;28;20064;-72
2021/08/16 00:53:46;;;;;;;6.90;1.73;;;;;;;17.87;73.50;100482.41;5031689;28;20073;-72
2021/08/16 00:56:33;;;;;;;5.43;1.30;;;;;;;17.91;72.23;100477.75;5027235;28;20030;-72
2021/08/16 00:59:19;;;;;;;7.30;1.65;;;;;;;17.90;72.21;100480.91;5023598;28;20414;-72
2021/08/16 01:02:04;;;;;;;3.05;1.20;;;;;;;17.89;72.69;100479.28;5024194;28;20042;-72
2021/08/16 01:04:50;;;;;;;10.30;1.63;;;;;;;17.82;72.30;100482.63;5028394;28;20167;-72
2021/08/16 01:07:36;;;;;;;7.78;1.63;;;;;;;17.84;72.64;100485.91;5025184;28;20289;-72
2021/08/16 01:10:22;;;;;;;5.78;1.55;;;;;;;17.82;72.83;100489.06;5030079;28;20034;-72
2021/08/16 01:13:08;;;;;;;6.72;1.42;;;;;;;17.82;72.98;100483.44;5025684;28;20064;-72
2021/08/16 01:15:59;;;;;;;7.13;1.90;;;;;;;17.80;73.32;100483.00;5026966;28;20045;-72
2021/08/16 01:18:46;;;;;;;5.35;1.50;;;;;;;17.78;72.72;100481.66;5032218;28;20103;-72
2021/08/16 01:21:31;;;;;;;5.50;1.73;;;;;;;17.82;72.76;100479.81;5045645;28;20030;-72
2021/08/16 01:24:17;;;;;;;5.68;1.45;;;;;;;17.80;72.65;100479.31;5033265;28;20033;-72
2021/08/16 01:27:05;;;;;;;6.70;1.60;;;;;;;17.78;73.29;100478.84;5029585;28;20030;-72
2021/08/16 01:29:51;;;;;;;8.25;2.03;;;;;;;17.77;73.14;100480.00;5027196;28;20034;-72
2021/08/16 01:32:37;;;;;;;6.75;1.92;;;;;;;17.76;73.02;100478.34;5022376;28;20048;-72
2021/08/16 01:35:23;;;;;;;6.70;1.80;;;;;;;17.75;73.62;100477.53;5025010;28;20038;-72
2021/08/16 01:38:09;;;;;;;6.38;1.80;;;;;;;17.76;72.97;100478.34;5027377;28;20048;-72
2021/08/16 01:40:55;;;;;;;4.25;1.60;;;;;;;17.73;73.40;100474.25;5023729;28;20030;-72
2021/08/16 01:43:41;;;;;;;5.93;1.63;;;;;;;17.72;72.79;100485.81;5036292;28;20037;-72
2021/08/16 01:46:27;;;;;;;4.50;1.60;;;;;;;17.69;73.92;100490.16;5031898;28;20041;-72
2021/08/16 01:49:12;;;;;;;7.10;1.58;;;;;;;17.69;74.22;100483.69;5031279;28;20494;-72
2021/08/16 01:51:58;;;;;;;5.63;1.67;;;;;;;17.67;74.12;100486.03;5007162;28;20050;-72
2021/08/16 01:54:44;;;;;;;6.32;1.60;;;;;;;17.65;74.08;100487.19;5021734;28;20030;-72
2021/08/16 01:57:30;;;;;;;7.57;1.83;;;;;;;17.66;74.31;100490.81;5039278;28;20038;-72
2021/08/16 02:00:16;;;;;;;6.65;1.95;;;;;;;17.65;74.26;100490.00;5028599;28;20037;-72
2021/08/16 02:03:02;;;;;;;3.78;1.63;;;;;;;17.61;74.33;100494.66;5023145;28;20029;-72
2021/08/16 02:05:48;;;;;;;6.10;1.75;;;;;;;17.61;73.76;100500.28;5026797;28;20037;-72
2021/08/16 02:08:34;;;;;;;7.45;1.50;;;;;;;17.59;73.50;100499.78;5031545;28;20041;-72
2021/08/16 02:11:20;;;;;;;6.63;2.20;;;;;;;17.59;74.58;100508.22;5025370;28;20045;-72
2021/08/16 02:14:05;;;;;;;7.70;1.65;;;;;;;17.57;75.17;100506.91;5034254;28;20045;-72
2021/08/16 02:16:51;;;;;;;6.97;1.65;;;;;;;17.54;75.45;100504.78;5029809;28;20128;-72
2021/08/16 02:19:38;;;;;;;4.78;1.50;;;;;;;17.53;75.47;100503.97;5030359;28;20121;-72
2021/08/16 02:22:23;;;;;;;7.55;1.83;;;;;;;17.53;75.28;100497.53;5034984;28;20505;-72
2021/08/16 02:25:09;;;;;;;5.10;1.33;;;;;;;17.53;74.80;100503.16;5023213;28;20053;-72
2021/08/16 02:27:55;;;;;;;6.03;1.88;;;;;;;17.49;74.79;100505.00;5023020;28;20042;-72
2021/08/16 02:30:41;;;;;;;4.30;1.80;;;;;;;17.48;74.85;100514.59;5031083;28;20038;-72
2021/08/16 02:33:27;;;;;;;5.97;1.77;;;;;;;17.45;75.27;100504.84;5030961;28;20052;-72
2021/08/16 02:36:12;;;;;;;8.27;1.98;;;;;;;17.42;75.65;100509.16;5030496;28;20108;-72
2021/08/16 02:38:58;;;;;;;5.95;1.65;;;;;;;17.41;75.19;100509.47;5036829;28;20095;-72
2021/08/16 02:41:44;;;;;;;3.33;1.58;;;;;;;17.39;75.40;100506.22;5037349;28;20095;-72
2021/08/16 02:44:30;;;;;;;7.60;1.90;;;;;;;17.39;75.55;100506.22;5032449;28;20044;-72
2021/08/16 02:47:16;;;;;;;6.00;1.60;;;;;;;17.39;75.37;100500.59;5022371;28;20382;-72
2021/08/16 02:50:02;;;;;;;4.40;1.35;;;;;;;17.37;75.66;100512.16;5025430;28;20560;-72
2021/08/16 02:52:48;;;;;;;4.28;1.50;;;;;;;17.37;75.47;100509.34;5033786;28;20109;-72
2021/08/16 02:55:34;;;;;;;4.32;1.73;;;;;;;17.39;75.22;100509.03;5030807;28;20036;-72
2021/08/16 02:58:20;;;;;;;3.65;1.40;;;;;;;17.40;75.94;100516.28;5033945;28;20532;-72
2021/08/16 03:01:06;;;;;;;5.10;1.45;;;;;;;17.38;75.55;100507.38;5025876;28;20042;-72
2021/08/16 03:03:51;;;;;;;5.85;1.73;;;;;;;17.37;75.91;100511.34;5029278;28;20428;-72
2021/08/16 03:06:37;;;;;;;4.45;1.73;;;;;;;17.38;76.48;100507.38;5026028;28;20414;-72
2021/08/16 03:09:26;;;;;;;2.95;1.52;;;;;;;17.36;75.79;100515.31;5023054;28;20546;-72
2021/08/16 03:12:12;;;;;;;5.55;1.52;;;;;;;17.35;75.46;100506.06;5023435;28;20037;-72
2021/08/16 03:14:57;;;;;;;4.40;1.40;;;;;;;17.37;75.81;100511.34;5033676;28;20116;-72
2021/08/16 03:17:43;;;;;;;3.72;1.63;;;;;;;17.35;76.72;100508.03;5028640;28;20099;-72
2021/08/16 03:20:29;;;;;;;5.68;1.65;;;;;;;17.33;76.94;100508.41;5029932;28;20040;-72
2021/08/16 03:23:15;;;;;;;7.55;1.63;;;;;;;17.30;76.18;100511.91;5032952;28;20044;-72
2021/08/16 03:26:01;;;;;;;4.85;1.60;;;;;;;17.29;76.15;100521.47;5032246;28;20033;-72
2021/08/16 03:28:46;;;;;;;4.88;1.75;;;;;;;17.30;76.84;100520.31;5023329;28;20109;-72
2021/08/16 03:31:32;;;;;;;4.85;1.40;;;;;;;17.29;76.71;100515.03;5022440;28;20117;-72
2021/08/16 03:34:18;;;;;;;6.82;1.90;;;;;;;17.31;76.24;100518.31;5033015;28;20108;-72
2021/08/16 03:37:04;;;;;;;5.00;1.40;;;;;;;17.29;77.05;100513.03;5027642;28;20108;-72
2021/08/16 03:39:49;;;;;;;5.90;1.70;;;;;;;17.32;77.30;100519.97;5009100;28;20042;-72
2021/08/16 03:42:36;;;;;;;5.72;1.67;;;;;;;17.30;76.83;100520.31;5032531;28;20041;-72
2021/08/16 03:45:22;;;;;;;4.70;1.40;;;;;;;17.28;76.95;100522.63;5029305;28;20046;-72
2021/08/16 03:48:08;;;;;;;4.95;1.67;;;;;;;17.28;77.33;100530.22;5025570;28;20359;-72
2021/08/16 03:50:53;;;;;;;5.45;1.52;;;;;;;17.28;76.84;100521.81;5019330;28;20085;-72
2021/08/16 03:53:39;;;;;;;5.15;1.55;;;;;;;17.28;76.64;100524.63;5025183;28;20038;-72
2021/08/16 03:56:25;;;;;;;5.15;1.58;;;;;;;17.26;77.33;100522.13;5030585;28;20037;-72
2021/08/16 03:59:11;;;;;;;3.75;1.30;;;;;;;17.27;77.23;100520.97;5033915;28;20502;-72
2021/08/16 04:01:57;;;;;;;4.25;1.70;;;;;;;17.27;77.36;100523.78;5036913;28;20071;-72
2021/08/16 04:04:42;;;;;;;7.05;1.85;;;;;;;17.28;78.48;100527.44;5023739;28;20077;-72
2021/08/16 04:07:28;;;;;;;2.97;1.50;;;;;;;17.29;76.66;100529.88;5033149;28;20415;-72
2021/08/16 04:10:14;;;;;;;3.75;1.67;;;;;;;17.28;77.01;100531.06;5023137;28;20033;-72
2021/08/16 04:13:00;;;;;;;4.95;2.10;;;;;;;17.27;77.41;100531.38;5036207;28;20144;-72
2021/08/16 04:15:46;;;;;;;3.45;1.30;;;;;;;17.24;77.26;100534.84;5030248;28;20495;-72
2021/08/16 04:18:32;;;;;;;3.53;1.73;;;;;;;17.22;77.41;100537.19;5025021;28;20051;-72
2021/08/16 04:21:17;;;;;;;4.90;1.65;;;;;;;17.22;77.55;100542.78;5009551;28;20074;-72
2021/08/16 04:24:04;;;;;;;4.13;1.42;;;;;;;17.23;77.37;100550.06;5034724;28;20079;-72
2021/08/16 04:26:49;;;;;;;5.00;1.80;;;;;;;17.23;77.08;100544.44;5028474;28;20050;-72
2021/08/16 04:29:35;;;;;;;5.40;1.88;;;;;;;17.23;77.12;100545.28;5037129;28;20029;-72
2021/08/16 04:32:21;;;;;;;5.32;1.90;;;;;;;17.22;76.93;100554.84;5024424;28;20138;-72
2021/08/16 04:35:07;;;;;;;6.88;1.77;;;;;;;17.24;77.50;100560.94;5036339;28;20044;-72
2021/08/16 04:37:53;;;;;;;6.03;1.90;;;;;;;17.20;77.15;100558.00;5028772;28;20052;-72
2021/08/16 04:40:39;;;;;;;3.15;1.75;;;;;;;17.22;77.78;100565.25;5024876;28;20108;-72
2021/08/16 04:43:25;;;;;;;6.30;2.10;;;;;;;17.16;77.43;100570.22;5022568;28;20042;-72
2021/08/16 04:46:10;;;;;;;4.13;1.73;;;;;;;17.18;76.93;100571.53;5029902;28;20042;-72
2021/08/16 04:48:56;;;;;;;4.30;1.70;;;;;;;17.18;77.79;100579.13;5027507;28;20050;-72
2021/08/16 04:51:42;;;;;;;3.47;1.55;;;;;;;17.15;76.79;100577.00;5024616;28;20051;-72
2021/08/16 04:54:28;;;;;;;2.60;1.35;;;;;;;17.15;77.11;100575.00;5034834;28;20118;-72
2021/08/16 04:57:14;;;;;;;2.70;1.50;;;;;;;17.16;77.12;100579.47;5031631;28;20112;-72
2021/08/16 05:00:00;;;;;;;3.97;1.58;;;;;;;17.15;77.38;100580.63;5029027;28;20124;-72
2021/08/16 05:02:45;;;;;;;4.03;2.25;;;;;;;17.14;77.92;100584.59;5033334;28;20033;-72
2021/08/16 05:05:31;;;;;;;3.10;1.60;;;;;;;17.13;77.57;100582.13;5028005;28;20080;-72
2021/08/16 05:08:17;;;;;;;3.53;1.70;;;;;;;17.14;77.44;100580.97;5029714;28;20072;-72
2021/08/16 05:11:03;;;;;;;4.53;1.50;;;;;;;17.13;78.10;100588.59;5022600;28;20038;-72
2021/08/16 05:13:49;;;;;;;3.65;1.70;;;;;;;17.12;78.15;100595.34;5030668;28;20038;-72
2021/08/16 05:16:35;;;;;;;5.40;1.80;;;;;;;17.10;77.53;100603.25;5022898;28;20095;-72
2021/08/16 05:19:21;;;;;;;4.57;1.52;;;;;;;17.11;77.17;100604.09;5028155;28;20048;-72
2021/08/16 05:22:07;;;;;;;5.38;2.00;;;;;;;17.09;78.97;100601.63;5024986;28;20029;-72
2021/08/16 05:24:53;;;;;;;3.90;1.50;;;;;;;17.08;77.46;100605.59;5034304;28;20033;-72
2021/08/16 05:27:40;;;;;;;3.53;1.75;;;;;;;17.06;77.98;100605.09;5034747;28;20124;-72
2021/08/16 05:30:26;;;;;;;4.20;2.05;;;;;;;17.05;77.60;100622.25;5032538;28;20037;-72
2021/08/16 05:33:11;;;;;;;4.40;1.92;;;;;;;17.07;78.42;100612.34;5020193;28;20037;-72
2021/08/16 05:35:57;;;;;;;3.10;1.80;;;;;;;17.08;78.08;100621.63;5025909;28;20030;-72
2021/08/16 05:38:45;;;;;;;2.88;1.52;;;;;;;17.07;77.77;100628.38;5028514;28;20069;-72
2021/08/16 05:41:31;;;;;;;6.40;1.88;;;;;;;17.08;79.40;100628.03;5034231;28;20448;-72
2021/08/16 05:44:17;;;;;;;4.13;2.10;;;;;;;17.07;79.14;100629.19;5035259;28;20041;-72
2021/08/16 05:47:05;;;;;;;4.38;2.10;;;;;;;17.10;78.52;100631.31;5024753;28;20030;-72
2021/08/16 05:49:51;;;;;;;5.43;2.00;;;;;;;17.10;78.00;100644.53;5033996;28;20478;-72
2021/08/16 05:52:38;;;;;;;4.97;2.00;;;;;;;17.11;78.19;100643.38;5037704;28;20073;-72
2021/08/16 05:55:24;;;;;;;3.63;2.05;;;;;;;17.09;78.01;100646.50;5022001;28;20037;-72
2021/08/16 05:58:10;;;;;;;3.38;1.80;;;;;;;17.13;78.36;100649.47;5037879;28;20094;-72
2021/08/16 06:00:55;;;;;;;2.85;1.70;;;;;;;17.13;78.55;100655.94;5033643;28;20046;-72
2021/08/16 06:03:41;;;;;;;8.70;2.15;;;;;;;17.11;78.24;100661.03;5028054;28;20659;-72
2021/08/16 06:06:27;;;;;;;3.33;1.63;;;;;;;17.13;79.33;100669.97;5026578;28;20033;-72
2021/08/16 06:09:13;;;;;;;4.07;1.92;;;;;;;17.10;78.13;100673.41;5028918;28;20088;-72
2021/08/16 06:11:59;;;;;;;4.70;2.45;;;;;;;17.14;78.27;100682.81;5033169;28;20106;-72
2021/08/16 06:14:44;;;;;;;3.90;2.10;;;;;;;17.13;78.36;100686.78;5028391;28;20120;-72
2021/08/16 06:17:31;;;;;;;5.70;3.25;;;;;;;17.13;80.95;100695.22;5037839;28;20033;-72
2021/08/16 06:20:17;;;;;;;4.00;2.90;;;;;;;17.12;81.04;100696.34;5028655;28;20505;-72
2021/08/16 06:23:03;;;;;;;6.32;2.88;;;;;;;17.11;83.11;100705.94;5031249;28;20164;-72
2021/08/16 06:25:49;;;;;;;7.07;2.70;;;;;;;17.07;85.25;100710.56;5027032;28;20041;-72
2021/08/16 06:28:35;;;;;;;7.70;2.70;;;;;;;17.03;85.89;100709.59;5034532;28;20084;-72
2021/08/16 06:31:20;;;;;;;5.93;2.50;;;;;;;17.00;86.33;100721.47;5029006;28;20044;-72
2021/08/16 06:34:09;;;;;;;5.95;2.60;;;;;;;17.01;86.68;100723.13;5026352;28;20029;-72
2021/08/16 06:36:55;;;;;;;4.97;2.40;;;;;;;17.02;86.33;100726.75;5036088;28;20038;-71
2021/08/16 06:39:41;;;;;;;6.68;2.53;;;;;;;17.02;86.14;100733.19;5025045;28;20066;-71
2021/08/16 06:42:27;;;;;;;5.80;2.33;;;;;;;17.05;84.78;100726.06;5027296;28;20520;-72
2021/08/16 06:45:13;;;;;;;6.82;2.30;;;;;;;17.03;87.22;100751.66;5028094;28;20164;-72
2021/08/16 06:47:59;;;;;;;8.65;3.03;;;;;;;17.02;87.23;100752.84;5034775;28;20088;-72
2021/08/16 06:50:45;;;;;;;9.82;2.78;;;;;;;17.05;86.67;100765.34;5026939;28;20042;-72
2021/08/16 06:53:30;;;;;;;6.90;2.40;;;;;;;17.07;86.89;100757.44;5033481;28;20044;-71
2021/08/16 06:56:16;;;;;;;12.68;3.05;;;;;;;17.03;87.23;100765.69;5035218;28;20025;-71
2021/08/16 06:59:02;;;;;;;12.18;3.28;;;;;;;16.98;86.86;100779.91;5035224;28;20108;-71
2021/08/16 07:01:49;;;;;;;14.05;3.22;;;;;;;16.97;86.40;100778.25;5032762;28;20116;-71
2021/08/16 07:04:35;;;;;;;11.73;3.25;;;;;;;17.00;85.67;100774.78;5031960;28;20449;-72
2021/08/16 07:07:22;;;;;;;11.50;3.38;;;;;;;17.03;85.50;100788.16;5032477;28;20541;-72
2021/08/16 07:10:08;;;;;;;16.83;3.33;;;;;;;17.11;87.15;100794.91;5033931;28;20037;-71
2021/08/16 07:12:54;;;;;;;10.85;3.05;;;;;;;17.20;87.75;100788.13;5034414;28;20493;-72
2021/08/16 07:15:40;;;;;;;13.27;3.50;;;;;;;17.30;86.84;100788.94;5036462;28;20111;-72
2021/08/16 07:18:26;;;;;;;16.05;3.38;;;;;;;17.45;86.99;100785.59;5024711;28;20046;-72
2021/08/16 07:21:11;;;;;;;7.95;2.65;;;;;;;17.57;86.64;100796.97;5035041;28;20104;-72
2021/08/16 07:23:57;;;;;;;14.02;2.58;;;;;;;17.68;85.63;100797.44;5035926;28;20101;-72
2021/08/16 07:26:43;;;;;;;12.80;2.72;;;;;;;17.79;84.22;100795.94;5031475;28;20041;-71
2021/08/16 07:29:30;;;;;;;13.82;2.83;;;;;;;17.91;83.67;100800.84;5024984;28;20042;-72
2021/08/16 07:32:16;;;;;;;11.68;2.97;;;;;;;17.99;83.33;100805.59;5030270;28;20068;-72
2021/08/16 07:35:01;;;;;;;9.57;2.85;;;;;;;18.06;81.86;100805.09;5034889;28;20116;-73
2021/08/16 07:37:47;;;;;;;10.55;2.95;;;;;;;18.16;81.93;100798.25;5029759;28;20123;-72
2021/08/16 07:40:33;;;;;;;10.75;3.13;;;;;;;18.21;80.90;100804.50;5023125;28;20037;-72
2021/08/16 07:43:20;;;;;;;11.43;2.97;;;;;;;18.37;80.24;100806.75;5021282;28;20410;-72
2021/08/16 07:46:06;;;;;;;8.93;2.42;;;;;;;18.49;79.64;100807.66;5034549;28;20034;-72
2021/08/16 07:48:52;;;;;;;4.38;1.95;;;;;;;18.58;77.71;100807.59;5034822;28;20371;-72
2021/08/16 07:51:38;;;;;;;13.25;2.78;;;;;;;18.69;76.94;100805.22;5025463;28;20049;-72
2021/08/16 07:54:24;;;;;;;11.60;2.63;;;;;;;18.74;76.74;100802.22;5023180;28;20044;-72
2021/08/16 07:57:10;;;;;;;15.93;2.67;;;;;;;18.81;76.30;100810.97;5025529;28;20046;-72
2021/08/16 07:59:56;;;;;;;10.07;2.70;;;;;;;18.88;75.85;100811.22;5023379;28;20053;-72
2021/08/16 08:02:49;;;;;;;10.20;2.35;;;;;;;18.95;75.31;100817.13;5032189;28;20034;-72
2021/08/16 08:05:35;;;;;;;12.13;2.60;;;;;;;19.02;74.76;100822.22;5037472;28;20041;-72
2021/08/16 08:08:20;;;;;;;10.23;2.65;;;;;;;19.08;74.34;100825.63;5034749;28;20055;-72
2021/08/16 08:11:06;;;;;;;13.63;2.80;;;;;;;19.06;73.69;100822.38;5030795;28;20105;-73
2021/08/16 08:13:52;;;;;;;11.05;2.50;;;;;;;19.02;73.46;100833.47;5029990;28;20567;-71
2021/08/16 08:16:39;;;;;;;9.43;2.40;;;;;;;19.09;73.20;100842.19;5018519;28;20037;-70
2021/08/16 08:19:24;;;;;;;7.85;2.28;;;;;;;19.15;72.56;100842.81;5035361;28;20435;-71
2021/08/16 08:22:10;;;;;;;9.73;2.72;;;;;;;19.18;72.38;100847.75;5033875;28;20029;-70
2021/08/16 08:24:56;;;;;;;14.05;2.55;;;;;;;19.37;71.97;100855.72;5030139;28;20493;-70
2021/08/16 08:27:42;;;;;;;9.10;2.20;;;;;;;19.40;71.34;100863.47;5015771;28;20100;-70
2021/08/16 08:30:28;;;;;;;11.00;2.50;;;;;;;19.43;70.50;100863.59;5035418;28;20555;-70
2021/08/16 08:33:15;;;;;;;11.15;2.60;;;;;;;19.71;69.80;100868.66;5029821;28;20131;-70
2021/08/16 08:36:01;;;;;;;9.88;2.67;;;;;;;19.86;69.54;100867.16;5012952;28;20030;-70
2021/08/16 08:38:47;;;;;;;6.70;2.03;;;;;;;20.03;69.05;100877.41;5021100;28;20495;-70
2021/08/16 08:41:33;;;;;;;9.40;2.58;;;;;;;20.22;68.39;100863.56;5022658;28;20065;-70
2021/08/16 08:44:18;;;;;;;9.98;2.05;;;;;;;20.37;68.10;100869.72;5024490;28;20397;-70
2021/08/16 08:47:04;;;;;;;9.88;2.33;;;;;;;20.48;67.33;100870.91;5000231;28;20493;-70
2021/08/16 08:49:50;;;;;;;5.28;1.83;;;;;;;20.66;67.00;100880.78;5024073;28;20033;-69
2021/08/16 08:52:36;;;;;;;3.85;1.85;;;;;;;20.83;65.99;100887.34;5034481;28;20187;-69
2021/08/16 08:55:22;;;;;;;6.68;2.10;;;;;;;20.91;64.86;100892.06;4999257;28;20056;-70
2021/08/16 08:58:08;;;;;;;8.35;2.00;;;;;;;21.04;64.99;100896.50;5019054;28;20382;-70
2021/08/16 09:00:54;;;;;;;7.60;2.17;;;;;;;21.15;64.13;100889.19;5031830;28;20099;-69
2021/08/16 09:03:49;;;;;;;6.47;1.73;;;;;;;21.21;63.36;100898.25;5026148;28;20096;-70
2021/08/16 09:06:38;;;;;;;7.45;2.35;;;;;;;21.39;63.05;100902.44;5027244;28;20091;-72
2021/08/16 09:09:24;;;;;;;7.07;1.80;;;;;;;21.51;62.79;100895.94;5020571;28;20072;-71
2021/08/16 09:12:10;;;;;;;8.70;2.20;;;;;;;21.56;62.65;100904.16;5029008;28;20040;-71
2021/08/16 09:14:56;;;;;;;8.20;2.13;;;;;;;21.77;62.77;100903.13;5033233;28;20033;-71
2021/08/16 09:17:41;;;;;;;5.55;2.00;;;;;;;21.97;62.18;100910.53;5029795;28;20040;-72
2021/08/16 09:20:30;;;;;;;5.80;2.00;;;;;;;22.11;61.67;100906.47;5032625;28;20460;-71
2021/08/16 09:23:16;;;;;;;6.30;1.98;;;;;;;22.30;61.70;100920.75;5026807;28;20037;-71
2021/08/16 09:26:03;;;;;;;4.78;1.70;;;;;;;22.41;61.04;100909.72;5030995;28;20033;-70
2021/08/16 09:28:49;;;;;;;4.93;1.88;;;;;;;22.58;60.40;100909.34;5003446;28;20033;-71
2021/08/16 09:31:35;;;;;;;6.15;1.85;;;;;;;22.70;59.74;100912.06;5031430;28;20044;-71
2021/08/16 09:34:30;;;;;;;6.28;1.95;;;;;;;22.82;59.53;100916.81;5034491;28;20064;-73
2021/08/16 09:37:25;;;;;;;5.25;1.80;;;;;;;22.92;59.09;100929.56;5030185;28;20037;-69
2021/08/16 09:40:15;;;;;;;7.60;2.22;;;;;;;22.99;58.60;100926.13;5031837;28;20112;-69
2021/08/16 09:43:01;;;;;;;6.80;2.28;;;;;;;22.99;58.01;100926.97;5019167;28;20025;-69
2021/08/16 09:45:47;;;;;;;8.48;2.55;;;;;;;22.83;57.54;100924.13;5034319;28;20038;-69
2021/08/16 09:48:32;;;;;;;7.25;2.33;;;;;;;22.87;57.69;100927.88;5029764;28;20048;-69
2021/08/16 09:51:22;;;;;;;6.55;2.20;;;;;;;22.96;56.77;100928.50;5021598;28;20069;-69
2021/08/16 09:54:07;;;;;;;9.98;2.53;;;;;;;23.03;55.44;100925.00;5019150;28;20109;-69
2021/08/16 09:56:53;;;;;;;8.25;2.45;;;;;;;23.09;56.09;100931.22;4999698;28;20041;-69
2021/08/16 09:59:39;;;;;;;8.70;2.78;;;;;;;23.03;54.72;100946.84;5005613;28;20088;-69
2021/08/16 10:02:28;;;;;;;7.72;2.65;;;;;;;22.99;53.95;100952.44;5009527;28;20045;-69
2021/08/16 10:05:13;;;;;;;9.65;3.22;;;;;;;22.88;53.97;100957.81;5020935;28;20030;-69
2021/08/16 10:07:59;;;;;;;7.38;2.70;;;;;;;22.90;55.30;100957.44;5030706;28;20095;-71
2021/08/16 10:10:45;;;;;;;7.00;2.80;;;;;;;22.77;54.22;100959.56;5011941;28;20414;-71
2021/08/16 10:13:31;;;;;;;5.63;2.97;;;;;;;22.90;54.27;100952.63;5001340;28;20043;-71
2021/08/16 10:16:22;;;;;;;5.90;2.63;;;;;;;23.01;54.57;100966.22;5000701;28;20562;-71
2021/08/16 10:19:17;;;;;;;6.88;2.90;;;;;;;23.07;53.23;100959.09;5017272;28;20045;-71
2021/08/16 10:22:03;;;;;;;7.32;2.67;;;;;;;23.21;53.77;100970.78;5033721;28;20041;-71
2021/08/16 10:24:50;;;;;;;7.18;2.53;;;;;;;23.30;53.51;100964.91;5027884;28;20383;-70
2021/08/16 10:27:36;;;;;;;8.63;2.70;;;;;;;23.11;53.15;100965.66;5035401;28;20510;-69
2021/08/16 10:30:22;;;;;;;5.70;2.70;;;;;;;23.15;52.10;100967.41;5029925;28;20037;-69
2021/08/16 10:33:08;;;;;;;6.57;2.72;;;;;;;23.28;54.24;100975.78;5021844;28;20101;-69
2021/08/16 10:35:55;;;;;;;6.88;2.90;;;;;;;23.32;53.58;100977.50;5034415;28;20032;-69
2021/08/16 10:38:51;;;;;;;5.70;2.70;;;;;;;23.27;53.36;100971.31;5002294;28;20034;-69
2021/08/16 10:41:42;;;;;;;6.72;2.95;;;;;;;23.20;52.96;100966.28;5012270;28;20045;-69
2021/08/16 10:44:36;;;;;;;8.52;2.88;;;;;;;23.05;51.75;100972.81;5025331;28;20481;-69
2021/08/16 10:47:30;;;;;;;7.07;2.92;;;;;;;23.11;52.83;100977.00;5010597;28;20052;-69
2021/08/16 10:50:19;;;;;;;7.95;2.95;;;;;;;23.07;52.86;100971.25;5006738;28;20041;-69
2021/08/16 10:53:06;;;;;;;10.30;3.05;;;;;;;23.06;52.62;100969.59;5001052;28;20054;-69
2021/08/16 10:55:53;;;;;;;9.40;3.30;;;;;;;23.06;52.29;100980.09;5016284;28;20038;-69
2021/08/16 10:58:39;;;;;;;6.22;2.92;;;;;;;23.03;52.57;100972.34;5003758;28;20054;-69
2021/08/16 11:01:29;;;;;;;7.63;3.35;;;;;;;22.96;52.82;100981.50;5018470;28;20041;-69
2021/08/16 11:04:17;;;;;;;8.32;3.53;;;;;;;22.95;52.54;100979.81;5014187;28;20033;-69
2021/08/16 11:07:04;;;;;;;6.65;2.83;;;;;;;22.95;52.69;100975.00;5009595;28;20535;-69
2021/08/16 11:10:06;;;;;;;10.48;3.25;;;;;;;22.85;52.73;100978.38;5021777;28;20375;-69
2021/08/16 11:12:52;;;;;;;8.43;3.40;;;;;;;22.78;52.56;100983.84;5005624;28;20457;-69
2021/08/16 11:15:39;;;;;;;8.40;3.45;;;;;;;22.82;52.72;100978.28;5003031;28;20259;-66
2021/08/16 11:18:26;;;;;;;5.85;2.80;;;;;;;22.85;52.95;100975.53;5010148;28;20093;-67
2021/08/16 11:21:12;;;;;;;8.00;3.42;;;;;;;22.87;53.77;100978.84;5015345;28;20034;-67
2021/08/16 11:23:59;;;;;;;8.18;3.25;;;;;;;22.92;53.94;100980.56;5031879;28;20425;-66
2021/08/16 11:26:48;;;;;;;6.72;2.95;;;;;;;22.97;53.94;100977.47;5017166;28;20033;-67
2021/08/16 11:29:34;;;;;;;8.35;3.28;;;;;;;22.97;53.42;100981.13;5027794;28;20029;-67
2021/08/16 11:32:21;;;;;;;10.40;3.50;;;;;;;23.08;53.42;100978.56;5033901;28;20034;-67
2021/08/16 11:35:08;;;;;;;11.27;4.43;;;;;;;23.13;53.02;100980.28;5030006;28;20118;-71
2021/08/16 11:37:54;;;;;;;6.35;3.63;;;;;;;23.16;53.12;100983.19;5024738;28;20026;-70
2021/08/16 11:40:40;;;;;;;16.98;6.45;;;;;;;23.12;53.38;100996.47;5014388;28;20037;-70
2021/08/16 11:43:25;;;;;;;24.83;9.63;;;;;;;23.18;53.41;100983.66;5022024;28;20061;-71
2021/08/16 11:46:16;;;;;;;11.85;4.55;;;;;;;23.14;53.62;100991.25;5035329;28;20072;-71
2021/08/16 11:49:06;;;;;;;8.15;3.50;;;;;;;23.10;52.90;100984.69;5032762;28;20549;-71
2021/08/16 11:51:52;;;;;;;8.77;3.30;;;;;;;23.08;53.29;100989.06;5024190;28;20050;-70
2021/08/16 11:54:38;;;;;;;6.25;2.97;;;;;;;23.11;53.61;100991.16;5018243;28;20034;-70
2021/08/16 11:57:24;;;;;;;7.07;3.25;;;;;;;23.17;53.77;100984.03;5024824;28;20498;-69
2021/08/16 12:00:10;;;;;;;9.50;3.50;;;;;;;23.32;53.56;100993.69;5030331;28;20034;-69
2021/08/16 12:02:57;;;;;;;7.88;2.88;;;;;;;23.52;53.68;100994.56;5017123;28;20045;-69
2021/08/16 12:05:43;;;;;;;7.60;3.17;;;;;;;23.66;52.91;100997.69;5036184;28;20076;-70
2021/08/16 12:08:29;;;;;;;6.85;2.80;;;;;;;23.78;52.25;101005.25;5030816;28;20168;-70
2021/08/16 12:11:17;;;;;;;7.90;3.03;;;;;;;23.90;52.20;101002.28;5026682;28;20033;-70
2021/08/16 12:14:04;;;;;;;6.13;2.78;;;;;;;24.01;51.52;100994.00;5030417;28;20371;-69
2021/08/16 12:16:51;;;;;;;7.80;3.10;;;;;;;24.09;51.02;100999.44;5035420;28;20037;-69
2021/08/16 12:19:37;;;;;;;5.72;2.60;;;;;;;24.22;50.85;101002.13;5034651;28;20039;-69
2021/08/16 12:22:23;;;;;;;6.18;2.72;;;;;;;24.31;51.00;100999.84;5030653;28;20034;-69
2021/08/16 12:25:09;;;;;;;8.48;2.55;;;;;;;24.45;51.15;101002.19;5000874;28;20398;-69
2021/08/16 12:27:59;;;;;;;7.50;2.80;;;;;;;24.61;50.75;101013.44;5004999;28;20030;-70
2021/08/16 12:30:45;;;;;;;5.72;2.42;;;;;;;24.74;50.70;101001.50;5000798;28;20034;-70
2021/08/16 12:33:31;;;;;;;8.23;2.40;;;;;;;24.88;50.36;101014.31;5025875;28;20398;-70
2021/08/16 12:36:21;;;;;;;4.28;2.20;;;;;;;24.99;50.19;101018.16;5026077;28;20025;-70
2021/08/16 12:39:14;;;;;;;4.53;2.42;;;;;;;25.01;49.23;101027.09;5015981;28;20442;-70
2021/08/16 12:42:06;;;;;;;;;;;;;;;24.94;49.94;101029.84;5015559;28;20395;-70
2021/08/16 12:44:53;;;;;;;6.15;2.20;;;;;;;24.80;50.03;101035.28;5028063;28;20007;-70
2021/08/16 12:47:39;;;;;;;6.97;2.13;;;;;;;24.68;50.57;101042.78;5024696;28;20076;-70
2021/08/16 12:50:25;;;;;;;7.53;2.55;;;;;;;24.54;50.58;101036.81;5023925;28;20129;-70
2021/08/16 12:53:11;;;;;;;6.55;2.35;;;;;;;24.47;51.09;101036.69;5024706;28;20073;-71